Ana Sayfa
METAR-TAF:

METAR-TAF

Havaalanları :

Tela, Honduras

Enlem: 15-43N, Boylam: 087-29W, yükseklik: 3 m

Güncel hava durumu gözlemi

Rapor saat 20:00 UTC de 27 dakika önce yapıldı.
Rüzgar doğu/kuzeydoğudan 6 kt
Sıcaklık 33°C
Nem 67%
Basınç 1008 hPa
Görüş mesafesi 10 km veya daha fazla
2800 ft yükseklikte az bulutlu, Yükselen kümülüs.
Duman

METAR: MHTE 202000Z 06006KT 9999 FEW028TCU 33/26 Q1008 TCU NW FU

Saat: 14:27 (20:27 UTC)


TAF: eksik

4.000'den fazla havaalanı için hava durumu gözlemleri ve tahminleri (METAR ve TAF raporları).

Kullanılabilir istasyonlar harita üzerinde sarı ve kırmızı noktalarla gösterilir.

İstasyonun adını görmek için fareyi noktanın üzerinde gezdirin.

Sonrasında hava gözlem ve tahminlerini görmek için tıklayın.

Haritayı değiştirmek için: yaklaştırmak için siyah artı işaretli yeşil düğmeye ve uzaklaştırmak için de eksi işaretli düğmeye hızla tıklayın; bitişik haritalar için yeşil okları kullanın.


METAR-TAF: